Washington, IA

5:26 AM CDT on March 28, 2017 (GMT -0500)
Washington Municipal

Weather History for KAWG - October, 2013

Change the Weather History Date:

Friday, October 11, 2013

  Actual Average Record
Temperature  
Mean Temperature 66 °F -  
Max Temperature 78 °F 65 °F 84 °F (1997)
Min Temperature 53 °F 43 °F 32 °F (2000)
Growing Degree Days 16 (Base 50)    
Moisture  
Dew Point 54 °F    
Average Humidity 67    
Maximum Humidity 100    
Minimum Humidity 39    
Precipitation  
Precipitation 0.00 in - - ()
Sea Level Pressure  
Sea Level Pressure 29.91 in    
Wind  
Wind Speed 9 mph (SSE)    
Max Wind Speed 22 mph    
Max Gust Speed 29 mph    
Visibility 9 miles    
Events      
Averages and records for this station are not official NWS values.
T = Trace of Precipitation, MM = Missing Value Source: NWS Daily Summary

Daily Weather History Graph

Daily Weather History Graph

Search for Another Location

Airport or City:

Trip Planner

Search our weather history database for the weather conditions in past years. The results will help you decide how hot, cold, wet, or windy it might be!

Date:

Astronomy

Oct. 11, 2013 Rise Set
Actual Time 7:14 AM CDT 6:31 PM CDT
Civil Twilight 6:46 AM CDT 6:59 PM CDT
Nautical Twilight 6:14 AM CDT 7:31 PM CDT
Astronomical Twilight 5:42 AM CDT 8:03 PM CDT
Moon 1:58 PM CDT (10/11) No Moon Set
Length of Visible Light 12h 12m
Length of Day
11h 17m
Waxing Crescent, 47% of the Moon is Illuminated
Oct 11
Waxing Crescent
Oct 11
First Quarter
Oct 18
Full
Oct 26
Last Quarter
Nov 3
New

Hourly Weather History & Observations

Time (CDT) Temp. Dew Point Humidity Pressure Visibility Wind Dir Wind Speed Gust Speed Precip Events Conditions
12:15 AM 57.2 °F 51.8 °F 82% 29.97 in 10.0 mi SSE 5.8 mph - N/A   Clear
12:35 AM 59.0 °F 53.6 °F 82% 29.96 in 10.0 mi SE 6.9 mph - N/A   Clear
12:55 AM 59.0 °F 53.6 °F 82% 29.95 in 10.0 mi SE 8.1 mph - N/A   Clear
1:15 AM 59.0 °F 53.6 °F 82% 29.96 in 10.0 mi SSE 5.8 mph - N/A   Clear
1:55 AM 57.2 °F 53.6 °F 88% 29.97 in 10.0 mi SSE 6.9 mph - N/A   Clear
2:15 AM 57.2 °F 53.6 °F 88% 29.97 in 10.0 mi SSE 6.9 mph - N/A   Clear
2:35 AM 55.4 °F 53.6 °F 94% 29.97 in 10.0 mi SSE 5.8 mph - N/A   Clear
2:55 AM 55.4 °F 51.8 °F 88% 29.98 in 10.0 mi SSE 4.6 mph - N/A   Clear
3:15 AM 53.6 °F 51.8 °F 94% 29.98 in 10.0 mi SSE 5.8 mph - N/A   Clear
3:35 AM 55.4 °F 53.6 °F 94% 29.97 in 10.0 mi SE 5.8 mph - N/A   Clear
3:55 AM 55.4 °F 51.8 °F 88% 29.97 in 10.0 mi SE 5.8 mph - N/A   Clear
4:15 AM 53.6 °F 51.8 °F 94% 29.96 in 10.0 mi SE 5.8 mph - N/A   Clear
4:35 AM 53.6 °F 51.8 °F 94% 29.96 in 8.0 mi SE 5.8 mph - N/A   Clear
4:55 AM 53.6 °F 51.8 °F 94% 29.96 in 8.0 mi SSE 5.8 mph - N/A   Clear
5:15 AM 53.6 °F 51.8 °F 94% 29.97 in 7.0 mi SE 6.9 mph - N/A   Clear
5:35 AM 53.6 °F 51.8 °F 94% 29.97 in 7.0 mi SSE 5.8 mph - N/A   Clear
5:55 AM 53.6 °F 53.6 °F 100% 29.97 in 7.0 mi SE 6.9 mph - N/A   Clear
6:15 AM 53.6 °F 53.6 °F 100% 29.97 in 6.0 mi SSE 6.9 mph - N/A   Clear
6:35 AM 53.6 °F 53.6 °F 100% 29.97 in 6.0 mi SSE 5.8 mph - N/A   Clear
6:55 AM 53.6 °F 53.6 °F 100% 29.98 in 6.0 mi SSE 5.8 mph - N/A   Clear
7:15 AM 53.6 °F 53.6 °F 100% 29.98 in 4.0 mi SSE 6.9 mph - N/A   Clear
7:35 AM 55.4 °F 53.6 °F 94% 29.98 in 4.0 mi SSE 6.9 mph - N/A   Clear
7:55 AM 55.4 °F 55.4 °F 100% 29.97 in 4.0 mi SSE 8.1 mph - N/A   Clear
8:15 AM 57.2 °F 55.4 °F 94% 29.96 in 5.0 mi SSE 6.9 mph - N/A   Clear
8:35 AM 59.0 °F 57.2 °F 94% 29.96 in 8.0 mi SSE 8.1 mph 16.1 mph N/A   Clear
8:55 AM 60.8 °F 57.2 °F 88% 29.96 in 9.0 mi SSE 10.4 mph - N/A   Clear
9:15 AM 60.8 °F 57.2 °F 88% 29.96 in 10.0 mi SSE 10.4 mph 17.3 mph N/A   Clear
9:35 AM 62.6 °F 57.2 °F 82% 29.96 in 10.0 mi SSE 12.7 mph - N/A   Clear
9:55 AM 66.2 °F 59.0 °F 78% 29.96 in 10.0 mi SSE 12.7 mph - N/A   Clear
10:15 AM 66.2 °F 59.0 °F 78% 29.96 in 10.0 mi SSE 10.4 mph 17.3 mph N/A   Clear
10:35 AM 68.0 °F 59.0 °F 73% 29.95 in 10.0 mi SSE 10.4 mph 17.3 mph N/A   Clear
10:55 AM 69.8 °F 59.0 °F 68% 29.94 in 10.0 mi SSE 12.7 mph - N/A   Clear
11:15 AM 71.6 °F 57.2 °F 60% 29.93 in 10.0 mi South 12.7 mph 18.4 mph N/A   Clear
11:35 AM 73.4 °F 57.2 °F 57% 29.92 in 10.0 mi SSE 15.0 mph - N/A   Clear
11:55 AM 73.4 °F 57.2 °F 57% 29.92 in 10.0 mi SSE 16.1 mph 26.5 mph N/A   Clear
12:15 PM 75.2 °F 57.2 °F 53% 29.91 in 10.0 mi SSE 17.3 mph 24.2 mph N/A   Clear
12:35 PM 75.2 °F 57.2 °F 53% 29.89 in 10.0 mi South 17.3 mph 26.5 mph N/A   Clear
12:55 PM 77.0 °F 57.2 °F 50% 29.88 in 10.0 mi SSE 17.3 mph 23.0 mph N/A   Clear
1:15 PM 77.0 °F 55.4 °F 47% 29.87 in 10.0 mi SSE 21.9 mph 28.8 mph N/A   Clear
1:35 PM 78.8 °F 55.4 °F 44% 29.86 in 10.0 mi SSE 16.1 mph 26.5 mph N/A   Clear
1:55 PM 78.8 °F 55.4 °F 44% 29.85 in 10.0 mi SE 17.3 mph 28.8 mph N/A   Clear
2:15 PM 78.8 °F 53.6 °F 42% 29.85 in 10.0 mi SSE 17.3 mph 27.6 mph N/A   Clear
2:35 PM 78.8 °F 53.6 °F 42% 29.85 in 10.0 mi SSE 17.3 mph 26.5 mph N/A   Clear
2:55 PM 78.8 °F 53.6 °F 42% 29.84 in 10.0 mi SSE 18.4 mph 25.3 mph N/A   Clear
3:15 PM 78.8 °F 51.8 °F 39% 29.84 in 10.0 mi SSE 20.7 mph 27.6 mph N/A   Clear
3:35 PM 77.0 °F 51.8 °F 41% 29.84 in 10.0 mi South 12.7 mph 23.0 mph N/A   Clear
3:55 PM 78.8 °F 51.8 °F 39% 29.84 in 10.0 mi South 17.3 mph 26.5 mph N/A   Clear
4:15 PM 78.8 °F 51.8 °F 39% 29.84 in 10.0 mi South 12.7 mph 25.3 mph N/A   Clear
4:35 PM 78.8 °F 53.6 °F 42% 29.84 in 10.0 mi South 16.1 mph 25.3 mph N/A   Clear
4:55 PM 77.0 °F 53.6 °F 44% 29.84 in 10.0 mi SSE 11.5 mph 24.2 mph N/A   Clear
5:15 PM 77.0 °F 53.6 °F 44% 29.84 in 10.0 mi SSE 15.0 mph - N/A   Partly Cloudy
5:35 PM 77.0 °F 53.6 °F 44% 29.84 in 10.0 mi SSE 12.7 mph - N/A   Partly Cloudy
5:55 PM 75.2 °F 53.6 °F 47% 29.84 in 10.0 mi SSE 11.5 mph 18.4 mph N/A   Scattered Clouds
6:15 PM 75.2 °F 53.6 °F 47% 29.84 in 10.0 mi SSE 11.5 mph 20.7 mph N/A   Scattered Clouds
6:35 PM 73.4 °F 53.6 °F 50% 29.84 in 10.0 mi SSE 11.5 mph 17.3 mph N/A   Mostly Cloudy
6:55 PM 73.4 °F 53.6 °F 50% 29.85 in 10.0 mi SSE 11.5 mph 18.4 mph N/A   Mostly Cloudy
7:15 PM 73.4 °F 53.6 °F 50% 29.84 in 10.0 mi SSE 10.4 mph 18.4 mph N/A   Overcast
7:35 PM 73.4 °F 51.8 °F 47% 29.85 in 10.0 mi SSE 12.7 mph 18.4 mph N/A   Overcast
7:55 PM 71.6 °F 51.8 °F 50% 29.84 in 10.0 mi SSE 9.2 mph 18.4 mph N/A   Overcast
8:15 PM 71.6 °F 51.8 °F 50% 29.85 in 10.0 mi SSE 10.4 mph 16.1 mph N/A   Overcast
8:35 PM 71.6 °F 53.6 °F 53% 29.85 in 10.0 mi SSE 10.4 mph - N/A   Mostly Cloudy
8:55 PM 71.6 °F 53.6 °F 53% 29.85 in 10.0 mi SSE 11.5 mph - N/A   Overcast
9:15 PM 71.6 °F 53.6 °F 53% 29.86 in 10.0 mi SSE 9.2 mph 16.1 mph N/A   Overcast
9:35 PM 71.6 °F 53.6 °F 53% 29.85 in 10.0 mi SSE 11.5 mph - N/A   Overcast
9:55 PM 71.6 °F 53.6 °F 53% 29.85 in 10.0 mi SSE 10.4 mph - N/A   Overcast
10:15 PM 71.6 °F 53.6 °F 53% 29.85 in 10.0 mi SSE 10.4 mph - N/A   Overcast
10:35 PM 69.8 °F 53.6 °F 56% 29.86 in 10.0 mi SSE 8.1 mph 13.8 mph N/A   Overcast
10:55 PM 71.6 °F 53.6 °F 53% 29.86 in 10.0 mi SSE 10.4 mph - N/A   Overcast
11:15 PM 71.6 °F 55.4 °F 57% 29.86 in 10.0 mi South 10.4 mph - N/A   Overcast
11:35 PM 71.6 °F 55.4 °F 57% 29.86 in 10.0 mi South 11.5 mph 18.4 mph N/A   Overcast
11:55 PM 71.6 °F 55.4 °F 57% 29.86 in 10.0 mi South 12.7 mph 18.4 mph N/A   Overcast